createdAt,value
2023-05-22T00:00:21.866Z,21.80
2023-05-22T00:01:21.849Z,21.79
2023-05-22T00:02:22.773Z,21.76
2023-05-22T00:03:21.822Z,21.75
2023-05-22T00:04:21.858Z,21.75
2023-05-22T00:05:21.792Z,21.75
2023-05-22T00:06:21.832Z,21.72
2023-05-22T00:07:21.818Z,21.72
2023-05-22T00:08:22.676Z,21.70
2023-05-22T00:09:21.746Z,21.69
2023-05-22T00:10:21.704Z,21.70
2023-05-22T00:11:21.779Z,21.72
2023-05-22T00:12:21.752Z,21.72
2023-05-22T00:13:21.679Z,21.70
2023-05-22T00:14:22.624Z,21.70
2023-05-22T00:15:21.637Z,21.66
2023-05-22T00:16:22.343Z,21.66
2023-05-22T00:17:21.735Z,21.64
2023-05-22T00:18:21.621Z,21.64
2023-05-22T00:19:22.592Z,21.62
2023-05-22T00:20:21.614Z,21.61
2023-05-22T00:21:21.626Z,21.58
2023-05-22T00:22:21.583Z,21.58
2023-05-22T00:23:21.541Z,21.55
2023-05-22T00:24:21.613Z,21.55
2023-05-22T00:25:22.443Z,21.55
2023-05-22T00:26:21.509Z,21.55
2023-05-22T00:27:21.534Z,21.55
2023-05-22T00:28:21.463Z,21.55
2023-05-22T00:29:25.160Z,21.55
2023-05-22T00:30:22.378Z,21.57
2023-05-22T00:31:21.481Z,21.57
2023-05-22T00:32:21.434Z,21.58
2023-05-22T00:33:21.430Z,21.57
2023-05-22T00:34:21.498Z,21.57
2023-05-22T00:35:21.437Z,21.58
2023-05-22T00:36:22.338Z,21.58
2023-05-22T00:37:21.377Z,21.55
2023-05-22T00:38:21.359Z,21.54
2023-05-22T00:39:21.374Z,21.54
2023-05-22T00:40:21.355Z,21.52
2023-05-22T00:41:21.386Z,21.52
2023-05-22T00:42:22.346Z,21.50
2023-05-22T00:43:21.362Z,21.46
2023-05-22T00:44:21.302Z,21.45
2023-05-22T00:45:21.313Z,21.45
2023-05-22T00:46:21.567Z,21.42
2023-05-22T00:47:21.293Z,21.43
2023-05-22T00:48:22.190Z,21.40
2023-05-22T00:49:21.309Z,21.39
2023-05-22T00:50:21.323Z,21.39
2023-05-22T00:51:21.246Z,21.37
2023-05-22T00:52:21.217Z,21.39
2023-05-22T00:53:21.168Z,21.37
2023-05-22T00:54:22.086Z,21.37
2023-05-22T00:55:21.176Z,21.35
2023-05-22T00:56:21.136Z,21.36
2023-05-22T00:57:21.124Z,21.33
2023-05-22T00:58:21.145Z,21.32
2023-05-22T00:59:22.029Z,21.32
2023-05-22T01:00:21.309Z,21.35
2023-05-22T01:01:21.174Z,21.35
2023-05-22T01:02:21.077Z,21.37
2023-05-22T01:03:21.104Z,21.32
2023-05-22T01:04:21.958Z,21.33
2023-05-22T01:05:21.019Z,21.32
2023-05-22T01:06:21.040Z,21.32
2023-05-22T01:07:21.001Z,21.32
2023-05-22T01:08:20.958Z,21.33
2023-05-22T01:09:21.910Z,21.33
2023-05-22T01:10:20.954Z,21.32
2023-05-22T01:11:20.992Z,21.32
2023-05-22T01:12:20.914Z,21.25
2023-05-22T01:13:20.919Z,21.24
2023-05-22T01:14:21.926Z,21.21
2023-05-22T01:15:20.914Z,21.20
2023-05-22T01:16:20.972Z,21.20
2023-05-22T01:17:20.859Z,21.21
2023-05-22T01:18:20.847Z,21.20
2023-05-22T01:19:20.920Z,21.17
2023-05-22T01:20:21.846Z,21.18
2023-05-22T01:21:20.865Z,21.17
2023-05-22T01:22:20.796Z,21.15
2023-05-22T01:23:20.829Z,21.15
2023-05-22T01:24:20.814Z,21.14
2023-05-22T01:25:20.767Z,21.12
2023-05-22T01:26:21.695Z,21.09
2023-05-22T01:27:20.800Z,21.07
2023-05-22T01:28:20.721Z,21.09
2023-05-22T01:29:20.723Z,21.09
2023-05-22T01:30:20.705Z,21.09
2023-05-22T01:31:21.735Z,21.06
2023-05-22T01:32:20.697Z,21.06
2023-05-22T01:33:20.869Z,21.06
2023-05-22T01:34:20.730Z,21.05
2023-05-22T01:35:20.658Z,21.07
2023-05-22T01:36:20.669Z,21.06
2023-05-22T01:37:21.560Z,21.06
2023-05-22T01:38:20.569Z,21.05
2023-05-22T01:39:20.593Z,21.03
2023-05-22T01:40:20.634Z,21.05
2023-05-22T01:41:20.563Z,21.03
2023-05-22T01:42:20.588Z,21.02
2023-05-22T01:43:21.490Z,20.99
2023-05-22T01:44:20.529Z,20.97
2023-05-22T01:45:20.506Z,20.96
2023-05-22T01:46:20.535Z,20.96
2023-05-22T01:47:20.518Z,20.93
2023-05-22T01:48:21.407Z,20.92
2023-05-22T01:49:20.448Z,20.90
2023-05-22T01:50:20.540Z,20.88
2023-05-22T01:51:20.436Z,20.88
2023-05-22T01:52:20.472Z,20.88
2023-05-22T01:53:20.429Z,20.87
2023-05-22T01:54:21.350Z,20.85
2023-05-22T01:55:20.385Z,20.87
2023-05-22T01:56:20.395Z,20.85
2023-05-22T01:57:20.394Z,20.85
2023-05-22T01:58:20.344Z,20.84
2023-05-22T01:59:20.390Z,20.84
2023-05-22T02:00:21.290Z,20.82
2023-05-22T02:01:20.351Z,20.81
2023-05-22T02:02:20.337Z,20.81
2023-05-22T02:03:20.404Z,20.78
2023-05-22T02:04:20.282Z,20.77
2023-05-22T02:05:20.277Z,20.77
2023-05-22T02:06:21.171Z,20.74
2023-05-22T02:07:20.315Z,20.74
2023-05-22T02:08:20.232Z,20.72
2023-05-22T02:09:20.197Z,20.69
2023-05-22T02:10:20.227Z,20.69
2023-05-22T02:11:20.185Z,20.67
2023-05-22T02:12:21.133Z,20.69
2023-05-22T02:13:20.150Z,20.67
2023-05-22T02:14:20.156Z,20.66
2023-05-22T02:15:20.144Z,20.65
2023-05-22T02:16:20.173Z,20.65
2023-05-22T02:17:20.112Z,20.63
2023-05-22T02:18:21.037Z,20.60
2023-05-22T02:19:20.183Z,20.60
2023-05-22T02:20:20.072Z,20.59
2023-05-22T02:21:20.100Z,20.62
2023-05-22T02:22:20.085Z,20.62
2023-05-22T02:23:20.084Z,20.60
2023-05-22T02:24:20.986Z,20.62
2023-05-22T02:25:19.996Z,20.62
2023-05-22T02:26:20.009Z,20.63
2023-05-22T02:27:19.982Z,20.62
2023-05-22T02:28:19.985Z,20.63
2023-05-22T02:29:20.903Z,20.59
2023-05-22T02:30:19.957Z,20.60
2023-05-22T02:31:20.014Z,20.60
2023-05-22T02:32:19.913Z,20.60
2023-05-22T02:33:19.922Z,20.60
2023-05-22T02:34:19.898Z,20.60
2023-05-22T02:35:20.857Z,20.60
2023-05-22T02:36:19.869Z,20.62
2023-05-22T02:37:19.882Z,20.59
2023-05-22T02:38:19.861Z,20.58
2023-05-22T02:39:19.859Z,20.56
2023-05-22T02:40:19.822Z,20.56
2023-05-22T02:41:20.769Z,20.56
2023-05-22T02:42:19.821Z,20.56
2023-05-22T02:43:19.845Z,20.56
2023-05-22T02:44:19.816Z,20.55
2023-05-22T02:45:19.778Z,20.51
2023-05-22T02:46:20.780Z,20.51
2023-05-22T02:47:19.722Z,20.47
2023-05-22T02:49:17.235Z,20.43
2023-05-22T02:50:17.250Z,20.41
2023-05-22T02:51:17.240Z,20.41
2023-05-22T02:52:18.269Z,20.40
2023-05-22T02:53:17.230Z,20.40
2023-05-22T02:54:17.164Z,20.40
2023-05-22T02:55:17.166Z,20.37
2023-05-22T02:56:17.172Z,20.36
2023-05-22T02:57:17.131Z,20.32
2023-05-22T02:58:18.105Z,20.32
2023-05-22T02:59:17.161Z,20.29
2023-05-22T03:00:17.092Z,20.31
2023-05-22T03:01:17.133Z,20.32
2023-05-22T03:02:17.113Z,20.31
2023-05-22T03:03:17.194Z,20.31
2023-05-22T03:04:18.026Z,20.31
2023-05-22T03:05:17.034Z,20.31
2023-05-22T03:06:17.048Z,20.31
2023-05-22T03:07:17.082Z,20.31
2023-05-22T03:08:17.353Z,20.31
2023-05-22T03:09:23.265Z,20.31
2023-05-22T03:10:16.968Z,20.34
2023-05-22T03:11:17.003Z,20.32
2023-05-22T03:12:16.944Z,20.32
2023-05-22T03:13:16.920Z,20.34
2023-05-22T03:14:16.944Z,20.34
2023-05-22T03:15:17.853Z,20.34
2023-05-22T03:16:17.097Z,20.32
2023-05-22T03:17:16.908Z,20.32
2023-05-22T03:18:16.861Z,20.29
2023-05-22T03:19:16.978Z,20.28
2023-05-22T03:20:17.781Z,20.28
2023-05-22T03:21:16.827Z,20.26
2023-05-22T03:22:16.847Z,20.25
2023-05-22T03:23:16.798Z,20.26
2023-05-22T03:24:16.842Z,20.25
2023-05-22T03:25:17.702Z,20.24
2023-05-22T03:26:16.798Z,20.24
2023-05-22T03:27:16.832Z,20.22
2023-05-22T03:28:16.732Z,20.21
2023-05-22T03:29:16.825Z,20.19
2023-05-22T03:30:16.729Z,20.19
2023-05-22T03:31:17.648Z,20.18
2023-05-22T03:32:16.715Z,20.16
2023-05-22T03:33:16.779Z,20.13
2023-05-22T03:34:16.692Z,20.14
2023-05-22T03:35:16.706Z,20.11
2023-05-22T03:36:16.676Z,20.11
2023-05-22T03:37:17.597Z,20.11
2023-05-22T03:38:16.639Z,20.11
2023-05-22T03:39:16.603Z,20.13
2023-05-22T03:40:16.652Z,20.14
2023-05-22T03:41:16.616Z,20.13
2023-05-22T03:42:16.611Z,20.14
2023-05-22T03:43:22.891Z,20.16
2023-05-22T03:44:16.577Z,20.14
2023-05-22T03:45:16.583Z,20.16
2023-05-22T03:46:16.673Z,20.16
2023-05-22T03:47:16.562Z,20.16
2023-05-22T03:48:17.407Z,20.14
2023-05-22T03:49:16.514Z,20.13
2023-05-22T03:50:16.479Z,20.13
2023-05-22T03:51:18.660Z,20.11
2023-05-22T03:52:16.524Z,20.11
2023-05-22T03:53:16.423Z,20.11
2023-05-22T03:54:22.848Z,20.10
2023-05-22T03:55:16.423Z,20.11
2023-05-22T03:56:16.381Z,20.11
2023-05-22T03:57:16.379Z,20.13
2023-05-22T03:58:16.393Z,20.10
2023-05-22T03:59:16.444Z,20.09
2023-05-22T04:00:17.355Z,20.07
2023-05-22T04:01:16.345Z,20.04
2023-05-22T04:02:16.385Z,20.03
2023-05-22T04:03:16.398Z,20.03
2023-05-22T04:04:16.347Z,20.03
2023-05-22T04:05:22.530Z,20.00
2023-05-22T04:06:16.305Z,20.00
2023-05-22T04:07:16.372Z,20.00
2023-05-22T04:08:16.283Z,19.99
2023-05-22T04:09:16.208Z,20.02
2023-05-22T04:10:16.212Z,20.02
2023-05-22T04:11:17.190Z,20.03
2023-05-22T04:12:16.259Z,20.00
2023-05-22T04:13:16.207Z,20.00
2023-05-22T04:14:16.166Z,19.99
2023-05-22T04:15:16.156Z,19.96
2023-05-22T04:16:17.224Z,19.94
2023-05-22T04:17:16.146Z,19.91
2023-05-22T04:18:16.153Z,19.89
2023-05-22T04:19:16.166Z,19.86
2023-05-22T04:20:16.154Z,19.88
2023-05-22T04:21:22.329Z,19.88
2023-05-22T04:22:16.045Z,19.88
2023-05-22T04:23:16.071Z,19.88
2023-05-22T04:24:16.012Z,19.85
2023-05-22T04:25:16.080Z,19.86
2023-05-22T04:26:16.965Z,19.85
2023-05-22T04:27:16.053Z,19.84
2023-05-22T04:28:15.977Z,19.85
2023-05-22T04:29:15.950Z,19.86
2023-05-22T04:30:15.976Z,19.84
2023-05-22T04:31:17.018Z,19.84
2023-05-22T04:32:15.981Z,19.84
2023-05-22T04:33:15.955Z,19.85
2023-05-22T04:34:15.915Z,19.88
2023-05-22T04:35:15.957Z,19.89
2023-05-22T04:36:16.836Z,19.92
2023-05-22T04:37:15.919Z,19.89
2023-05-22T04:38:15.888Z,19.92
2023-05-22T04:39:15.875Z,19.95
2023-05-22T04:40:15.883Z,19.94
2023-05-22T04:41:15.846Z,19.94
2023-05-22T04:42:16.756Z,19.94
2023-05-22T04:43:15.782Z,19.96
2023-05-22T04:44:15.762Z,19.99
2023-05-22T04:45:15.780Z,19.99
2023-05-22T04:46:15.873Z,19.96
2023-05-22T04:47:15.747Z,20.00
2023-05-22T04:48:16.700Z,19.99
2023-05-22T04:49:15.972Z,19.95
2023-05-22T04:50:15.765Z,19.95
2023-05-22T04:51:15.768Z,19.94
2023-05-22T04:52:15.664Z,19.95
2023-05-22T04:53:15.661Z,19.99
2023-05-22T04:54:16.606Z,20.02
2023-05-22T04:55:15.793Z,20.00
2023-05-22T04:56:24.312Z,19.99
2023-05-22T04:57:17.214Z,20.00
2023-05-22T04:58:15.624Z,19.99
2023-05-22T04:59:15.634Z,20.00
2023-05-22T05:00:16.514Z,20.02
2023-05-22T05:01:15.663Z,20.02
2023-05-22T05:02:15.595Z,20.03
2023-05-22T05:03:15.728Z,20.03
2023-05-22T05:04:15.548Z,20.04
2023-05-22T05:05:21.787Z,20.06
2023-05-22T05:06:15.474Z,20.06
2023-05-22T05:07:15.484Z,20.06
2023-05-22T05:08:15.510Z,20.03
2023-05-22T05:09:15.447Z,20.02
2023-05-22T05:10:15.481Z,20.00
2023-05-22T05:11:16.379Z,20.00
2023-05-22T05:12:15.476Z,19.99
2023-05-22T05:13:15.429Z,19.96
2023-05-22T05:14:15.423Z,19.94
2023-05-22T05:15:15.393Z,19.92
2023-05-22T05:16:16.350Z,19.94
2023-05-22T05:17:15.358Z,19.95
2023-05-22T05:18:15.394Z,19.99
2023-05-22T05:19:15.430Z,19.96
2023-05-22T05:20:15.365Z,19.95
2023-05-22T05:21:16.298Z,19.94
2023-05-22T05:22:15.258Z,19.91
2023-05-22T05:23:15.262Z,19.88
2023-05-22T05:24:15.305Z,19.86
2023-05-22T05:25:15.332Z,19.85
2023-05-22T05:26:15.244Z,19.85
2023-05-22T05:27:16.208Z,19.85
2023-05-22T05:28:15.268Z,19.85
2023-05-22T05:29:15.233Z,19.81
2023-05-22T05:30:15.185Z,19.81
2023-05-22T05:31:15.187Z,19.77
2023-05-22T05:32:15.244Z,19.79
2023-05-22T05:33:21.417Z,19.82
2023-05-22T05:34:15.155Z,19.85
2023-05-22T05:35:15.124Z,19.86
2023-05-22T05:36:15.122Z,19.88
2023-05-22T05:37:15.115Z,19.88
2023-05-22T05:38:15.121Z,19.89
2023-05-22T05:39:21.392Z,19.89
2023-05-22T05:40:15.170Z,19.89
2023-05-22T05:41:15.052Z,19.89
2023-05-22T05:42:15.122Z,19.91
2023-05-22T05:43:15.092Z,19.92
2023-05-22T05:44:15.062Z,19.91
2023-05-22T05:45:21.328Z,19.94
2023-05-22T05:46:15.032Z,19.94
2023-05-22T05:47:15.078Z,19.95
2023-05-22T05:48:14.953Z,19.94
2023-05-22T05:49:14.972Z,19.94
2023-05-22T05:50:15.901Z,19.96
2023-05-22T05:51:14.978Z,19.96
2023-05-22T05:52:14.945Z,20.00
2023-05-22T05:53:14.995Z,19.99
2023-05-22T05:54:14.897Z,20.00
2023-05-22T05:55:21.165Z,20.02
2023-05-22T05:56:14.861Z,20.00
2023-05-22T05:57:14.969Z,20.00
2023-05-22T05:58:14.875Z,20.02
2023-05-22T05:59:14.899Z,20.03
2023-05-22T06:00:14.874Z,20.03
2023-05-22T06:01:21.130Z,20.04
2023-05-22T06:02:14.851Z,20.06
2023-05-22T06:03:15.596Z,20.09
2023-05-22T06:04:14.804Z,20.11
2023-05-22T06:05:14.799Z,20.11
2023-05-22T06:06:14.789Z,20.13
2023-05-22T06:07:15.702Z,20.18
2023-05-22T06:08:14.779Z,20.19
2023-05-22T06:09:14.693Z,20.18
2023-05-22T06:10:14.721Z,20.19
2023-05-22T06:11:15.390Z,20.19
2023-05-22T06:12:15.593Z,20.21
2023-05-22T06:13:14.763Z,20.25
2023-05-22T06:14:14.629Z,20.26
2023-05-22T06:15:14.649Z,20.29
2023-05-22T06:16:14.633Z,20.31
2023-05-22T06:17:15.628Z,20.32
2023-05-22T06:18:14.629Z,20.36
2023-05-22T06:19:14.668Z,20.40
2023-05-22T06:20:14.645Z,20.44
2023-05-22T06:21:14.615Z,20.50
2023-05-22T06:22:14.586Z,20.50
2023-05-22T06:23:15.498Z,20.55
2023-05-22T06:24:14.469Z,20.58
2023-05-22T06:25:14.507Z,20.60
2023-05-22T06:26:14.467Z,20.62
2023-05-22T06:27:14.473Z,20.65
2023-05-22T06:28:14.481Z,20.65
2023-05-22T06:29:15.396Z,20.65
2023-05-22T06:30:16.912Z,20.66
2023-05-22T06:31:16.043Z,20.67
2023-05-22T06:32:14.505Z,20.70
2023-05-22T06:33:14.501Z,20.72
2023-05-22T06:34:15.353Z,20.77
2023-05-22T06:35:14.441Z,20.78
2023-05-22T06:36:14.373Z,20.81
2023-05-22T06:37:14.388Z,20.84
2023-05-22T06:38:14.335Z,20.85
2023-05-22T06:39:15.280Z,20.87
2023-05-22T06:40:14.279Z,20.87
2023-05-22T06:41:14.348Z,20.84
2023-05-22T06:42:14.302Z,20.81
2023-05-22T06:43:14.266Z,20.87
2023-05-22T06:44:15.274Z,20.85
2023-05-22T06:45:14.253Z,20.87
2023-05-22T06:46:14.370Z,20.87
2023-05-22T06:47:14.214Z,20.90
2023-05-22T06:48:14.281Z,20.93
2023-05-22T06:49:15.154Z,20.93
2023-05-22T06:50:14.177Z,20.97
2023-05-22T06:51:14.153Z,20.96
2023-05-22T06:52:14.143Z,20.95
2023-05-22T06:53:14.158Z,20.92
2023-05-22T06:54:14.157Z,20.93
2023-05-22T06:55:15.078Z,20.96
2023-05-22T06:56:14.110Z,21.02
2023-05-22T06:57:14.099Z,20.99
2023-05-22T06:58:14.110Z,20.96
2023-05-22T06:59:14.026Z,20.97
2023-05-22T07:00:14.078Z,20.96
2023-05-22T07:01:14.980Z,20.99
2023-05-22T07:02:13.999Z,21.03
2023-05-22T07:03:14.085Z,21.07
2023-05-22T07:04:14.004Z,21.11
2023-05-22T07:05:13.970Z,21.17
2023-05-22T07:06:14.032Z,21.21
2023-05-22T07:07:14.946Z,21.25
2023-05-22T07:08:13.965Z,21.30
2023-05-22T07:09:14.631Z,21.35
2023-05-22T07:10:13.923Z,21.39
2023-05-22T07:11:13.917Z,21.46
2023-05-22T07:12:14.917Z,21.52
2023-05-22T07:13:13.956Z,21.55
2023-05-22T07:14:13.890Z,21.58
2023-05-22T07:15:13.877Z,21.61
2023-05-22T07:16:13.858Z,21.66
2023-05-22T07:17:14.779Z,21.72
2023-05-22T07:18:13.893Z,21.75
2023-05-22T07:19:13.875Z,21.82
2023-05-22T07:20:13.825Z,21.89
2023-05-22T07:21:13.786Z,21.95
2023-05-22T07:22:13.861Z,22.02
2023-05-22T07:23:14.793Z,22.06
2023-05-22T07:24:13.862Z,22.08
2023-05-22T07:25:13.880Z,22.13
2023-05-22T07:26:13.775Z,22.13
2023-05-22T07:27:14.487Z,22.14
2023-05-22T07:28:15.573Z,22.17
2023-05-22T07:29:13.688Z,22.20
2023-05-22T07:30:13.711Z,22.25
2023-05-22T07:31:13.714Z,22.22
2023-05-22T07:32:13.652Z,22.25
2023-05-22T07:33:13.792Z,22.28
2023-05-22T07:34:14.551Z,22.28
2023-05-22T07:35:13.630Z,22.23
2023-05-22T07:36:13.670Z,22.22
2023-05-22T07:37:13.625Z,22.18
2023-05-22T07:38:13.655Z,22.20
2023-05-22T07:39:14.524Z,22.25
2023-05-22T07:40:13.561Z,22.28
2023-05-22T07:41:13.558Z,22.29
2023-05-22T07:42:13.573Z,22.30
2023-05-22T07:43:13.589Z,22.35
2023-05-22T07:44:19.738Z,22.43
2023-05-22T07:45:13.482Z,22.50
2023-05-22T07:46:13.619Z,22.60
2023-05-22T07:47:13.509Z,22.69
2023-05-22T07:48:13.544Z,22.80
2023-05-22T07:49:14.366Z,22.88
2023-05-22T07:50:13.468Z,22.96
2023-05-22T07:51:13.481Z,23.05
2023-05-22T07:52:13.390Z,23.10
2023-05-22T07:53:13.364Z,23.17
2023-05-22T07:54:14.347Z,23.23
2023-05-22T07:55:13.424Z,23.27
2023-05-22T07:56:13.384Z,23.32
2023-05-22T07:57:13.381Z,23.37
2023-05-22T07:58:13.326Z,23.43
2023-05-22T07:59:14.112Z,23.46
2023-05-22T08:00:14.296Z,23.44
2023-05-22T08:01:13.347Z,23.44
2023-05-22T08:02:13.285Z,23.50
2023-05-22T08:03:13.343Z,23.56
2023-05-22T08:04:13.387Z,23.63
2023-05-22T08:05:13.287Z,23.74
2023-05-22T08:06:14.149Z,23.81
2023-05-22T08:07:13.239Z,23.87
2023-05-22T08:08:13.197Z,23.98
2023-05-22T08:09:13.205Z,24.05
2023-05-22T08:10:13.300Z,24.11
2023-05-22T08:11:13.152Z,24.13
2023-05-22T08:12:14.208Z,24.14
2023-05-22T08:13:13.160Z,24.20
2023-05-22T08:14:13.104Z,24.26
2023-05-22T08:15:13.144Z,24.35
2023-05-22T08:16:13.152Z,24.42
2023-05-22T08:17:13.295Z,24.47
2023-05-22T08:18:14.012Z,24.53
2023-05-22T08:19:13.176Z,24.58
2023-05-22T08:20:13.128Z,24.61
2023-05-22T08:21:13.029Z,24.66
2023-05-22T08:22:13.041Z,24.68
2023-05-22T08:23:13.083Z,24.70
2023-05-22T08:24:13.970Z,24.77
2023-05-22T08:25:12.973Z,24.81
2023-05-22T08:26:13.028Z,24.84
2023-05-22T08:27:13.022Z,24.85
2023-05-22T08:28:13.003Z,24.91
2023-05-22T08:29:12.969Z,24.91
2023-05-22T08:30:14.030Z,24.93
2023-05-22T08:31:12.942Z,24.92
2023-05-22T08:32:12.923Z,24.91
2023-05-22T08:33:12.970Z,24.93
2023-05-22T08:34:12.885Z,24.95
2023-05-22T08:35:12.922Z,24.88
2023-05-22T08:36:13.835Z,24.84
2023-05-22T08:37:12.846Z,24.80
2023-05-22T08:38:12.848Z,24.76
2023-05-22T08:39:12.819Z,24.76
2023-05-22T08:40:12.925Z,24.73
2023-05-22T08:41:12.774Z,24.65
2023-05-22T08:42:13.801Z,24.65
2023-05-22T08:43:12.790Z,24.65
2023-05-22T08:44:12.805Z,24.63
2023-05-22T08:45:12.745Z,24.66
2023-05-22T08:46:12.762Z,24.68
2023-05-22T08:47:12.824Z,24.70
2023-05-22T08:48:14.658Z,24.80
2023-05-22T08:49:12.743Z,24.91
2023-05-22T08:50:12.731Z,25.04
2023-05-22T08:51:12.625Z,25.21
2023-05-22T08:52:12.675Z,25.23
2023-05-22T08:53:12.675Z,25.33
2023-05-22T08:54:13.586Z,25.38
2023-05-22T08:55:12.662Z,25.47
2023-05-22T08:56:12.596Z,25.58
2023-05-22T08:57:12.655Z,25.68
2023-05-22T08:58:12.598Z,25.70
2023-05-22T08:59:13.484Z,25.75
2023-05-22T09:00:12.578Z,25.73
2023-05-22T09:01:12.571Z,25.78
2023-05-22T09:02:13.394Z,25.81
2023-05-22T09:03:12.646Z,25.90
2023-05-22T09:04:13.503Z,25.95
2023-05-22T09:05:12.532Z,25.96
2023-05-22T09:06:12.536Z,25.99
2023-05-22T09:07:12.594Z,26.05
2023-05-22T09:08:20.415Z,26.09
2023-05-22T09:09:13.973Z,26.21
2023-05-22T09:10:13.366Z,26.25
2023-05-22T09:11:12.560Z,26.33
2023-05-22T09:12:12.436Z,26.44
2023-05-22T09:13:12.421Z,26.47
2023-05-22T09:14:12.400Z,26.55
2023-05-22T09:15:13.341Z,26.65
2023-05-22T09:16:12.409Z,26.73
2023-05-22T09:17:12.358Z,26.80
2023-05-22T09:18:12.418Z,26.83
2023-05-22T09:19:12.320Z,26.88
2023-05-22T09:20:12.339Z,26.90
2023-05-22T09:21:28.287Z,26.83
2023-05-22T09:22:13.778Z,26.84
2023-05-22T09:23:12.314Z,26.78
2023-05-22T09:24:12.290Z,26.73
2023-05-22T09:25:12.371Z,26.66
2023-05-22T09:26:12.319Z,26.60
2023-05-22T09:27:13.218Z,26.56
2023-05-22T09:28:12.191Z,26.48
2023-05-22T09:29:12.255Z,26.45
2023-05-22T09:30:12.210Z,26.44
2023-05-22T09:31:12.269Z,26.41
2023-05-22T09:32:13.108Z,26.33
2023-05-22T09:33:12.382Z,26.33
2023-05-22T09:34:12.174Z,26.21
2023-05-22T09:35:12.123Z,26.13
2023-05-22T09:36:12.136Z,26.06
2023-05-22T09:37:12.102Z,26.09
2023-05-22T09:38:13.046Z,26.15
2023-05-22T09:39:12.072Z,26.22
2023-05-22T09:40:12.146Z,26.29
2023-05-22T09:41:12.174Z,26.34
2023-05-22T09:42:12.058Z,26.38
2023-05-22T09:43:13.002Z,26.45
2023-05-22T09:44:12.009Z,26.37
2023-05-22T09:45:12.100Z,26.38
2023-05-22T09:46:12.167Z,26.41
2023-05-22T09:47:12.023Z,26.48
2023-05-22T09:48:11.983Z,26.56
2023-05-22T09:49:16.168Z,26.70
2023-05-22T09:50:11.950Z,26.78
2023-05-22T09:51:12.012Z,26.95
2023-05-22T09:52:11.983Z,27.03
2023-05-22T09:53:11.946Z,27.10
2023-05-22T09:54:11.897Z,27.18
2023-05-22T09:55:13.549Z,27.30
2023-05-22T09:56:11.859Z,27.32
2023-05-22T09:57:11.921Z,27.21
2023-05-22T09:58:11.881Z,27.12
2023-05-22T09:59:11.800Z,27.05
2023-05-22T10:00:11.904Z,26.96
2023-05-22T10:01:12.823Z,26.93
2023-05-22T10:02:11.935Z,26.88
2023-05-22T10:03:11.858Z,26.83
2023-05-22T10:04:11.822Z,26.71
2023-05-22T10:05:11.805Z,26.71
2023-05-22T10:06:11.803Z,26.73
2023-05-22T10:07:12.731Z,26.89
2023-05-22T10:08:11.819Z,27.02
2023-05-22T10:09:11.715Z,27.14
2023-05-22T10:10:11.809Z,27.17
2023-05-22T10:11:11.822Z,27.25
2023-05-22T10:12:12.774Z,27.36
2023-05-22T10:13:11.721Z,27.51
2023-05-22T10:14:11.673Z,27.58
2023-05-22T10:15:11.720Z,27.55
2023-05-22T10:16:11.664Z,27.65
2023-05-22T10:17:12.579Z,27.65
2023-05-22T10:18:11.621Z,27.68
2023-05-22T10:19:11.683Z,27.68
2023-05-22T10:20:11.651Z,27.71
2023-05-22T10:21:11.625Z,27.70
2023-05-22T10:22:11.608Z,27.63
2023-05-22T10:23:12.625Z,27.52
2023-05-22T10:24:11.567Z,27.58
2023-05-22T10:25:11.559Z,27.49
2023-05-22T10:26:11.534Z,27.45
2023-05-22T10:27:11.510Z,27.49
2023-05-22T10:28:12.454Z,27.48
2023-05-22T10:29:11.574Z,27.52
2023-05-22T10:30:11.503Z,27.63
2023-05-22T10:31:11.443Z,27.73
2023-05-22T10:32:11.422Z,27.77
2023-05-22T10:33:11.507Z,27.87
2023-05-22T10:34:12.520Z,28.08
2023-05-22T10:35:11.435Z,28.32
2023-05-22T10:36:11.413Z,28.41
2023-05-22T10:37:18.576Z,28.48
2023-05-22T10:38:12.993Z,28.47
2023-05-22T10:39:11.379Z,28.51
2023-05-22T10:40:18.351Z,28.49
2023-05-22T10:41:11.374Z,28.51
2023-05-22T10:42:11.346Z,28.48
2023-05-22T10:43:11.302Z,28.41
2023-05-22T10:44:11.442Z,28.32
2023-05-22T10:45:11.386Z,28.25
2023-05-22T10:46:12.377Z,28.25
2023-05-22T10:47:12.035Z,28.33
2023-05-22T10:48:11.254Z,28.49
2023-05-22T10:49:11.216Z,28.72
2023-05-22T10:50:11.256Z,28.93
2023-05-22T10:51:11.230Z,28.98
2023-05-22T10:52:12.172Z,28.97
2023-05-22T10:53:11.245Z,28.96
2023-05-22T10:54:11.171Z,28.89
2023-05-22T10:55:11.204Z,29.01
2023-05-22T10:56:11.144Z,29.20
2023-05-22T10:57:11.158Z,29.34
2023-05-22T10:58:12.357Z,29.41
2023-05-22T10:59:11.156Z,29.61
2023-05-22T11:00:11.134Z,29.81
2023-05-22T11:01:11.127Z,29.94
2023-05-22T11:02:11.609Z,30.08
2023-05-22T11:03:17.794Z,30.08
2023-05-22T11:04:13.551Z,29.98
2023-05-22T11:05:11.268Z,29.91
2023-05-22T11:06:11.198Z,29.78
2023-05-22T11:07:11.056Z,29.60
2023-05-22T11:08:11.005Z,29.51
2023-05-22T11:09:10.989Z,29.53
2023-05-22T11:10:11.971Z,29.68
2023-05-22T11:11:11.175Z,29.94
2023-05-22T11:12:10.966Z,30.15
2023-05-22T11:13:10.990Z,30.23
2023-05-22T11:14:10.949Z,30.25
2023-05-22T11:15:11.583Z,30.27
2023-05-22T11:16:11.945Z,30.39
2023-05-22T11:17:11.034Z,30.30
2023-05-22T11:18:10.924Z,30.15
2023-05-22T11:19:22.789Z,30.13
2023-05-22T11:20:12.541Z,30.19
2023-05-22T11:21:11.837Z,30.31
2023-05-22T11:22:10.853Z,30.53
2023-05-22T11:23:10.964Z,30.70
2023-05-22T11:24:10.875Z,30.83
2023-05-22T11:25:10.866Z,30.77
2023-05-22T11:26:11.853Z,30.81
2023-05-22T11:27:10.820Z,30.80
2023-05-22T11:28:10.791Z,30.80
2023-05-22T11:29:10.777Z,30.94
2023-05-22T11:30:10.773Z,31.02
2023-05-22T11:31:11.804Z,30.94
2023-05-22T11:32:10.851Z,31.00
2023-05-22T11:33:10.795Z,30.85
2023-05-22T11:34:10.738Z,30.84
2023-05-22T11:35:10.704Z,30.77
2023-05-22T11:36:11.658Z,30.78
2023-05-22T11:37:10.687Z,30.87
2023-05-22T11:38:10.654Z,31.03
2023-05-22T11:39:10.700Z,31.28
2023-05-22T11:40:10.686Z,31.49
2023-05-22T11:41:11.625Z,31.69
2023-05-22T11:42:10.628Z,31.87
2023-05-22T11:43:10.668Z,32.18
2023-05-22T11:44:10.602Z,32.40
2023-05-22T11:45:10.610Z,32.37
2023-05-22T11:46:11.628Z,32.27
2023-05-22T11:47:10.567Z,31.85
2023-05-22T11:48:10.764Z,31.74
2023-05-22T11:49:10.565Z,31.58
2023-05-22T11:50:10.577Z,31.34
2023-05-22T11:51:10.535Z,31.25
2023-05-22T11:52:11.425Z,31.02
2023-05-22T11:53:10.565Z,30.80
2023-05-22T11:54:10.512Z,30.54
2023-05-22T11:55:10.534Z,30.40
2023-05-22T11:56:10.459Z,30.35
2023-05-22T11:57:10.598Z,30.39
2023-05-22T11:58:11.449Z,30.40
2023-05-22T11:59:10.427Z,30.54
2023-05-22T12:00:10.454Z,30.66
2023-05-22T12:01:10.383Z,30.70
2023-05-22T12:02:10.391Z,31.00
2023-05-22T12:03:11.437Z,31.29
2023-05-22T12:04:10.426Z,31.70
2023-05-22T12:05:10.326Z,32.11
2023-05-22T12:06:10.360Z,32.56
2023-05-22T12:07:10.380Z,32.71
2023-05-22T12:08:11.245Z,33.00
2023-05-22T12:09:10.448Z,33.20
2023-05-22T12:10:10.278Z,33.47
2023-05-22T12:11:10.364Z,33.43
2023-05-22T12:12:10.311Z,33.55
2023-05-22T12:13:10.270Z,33.77
2023-05-22T12:14:11.170Z,34.05
2023-05-22T12:15:10.258Z,34.25
2023-05-22T12:16:10.256Z,34.30
2023-05-22T12:17:10.191Z,34.24
2023-05-22T12:18:10.246Z,34.02
2023-05-22T12:19:10.184Z,33.90
2023-05-22T12:20:11.122Z,33.77
2023-05-22T12:21:10.220Z,33.92
2023-05-22T12:22:10.146Z,34.01
2023-05-22T12:23:10.214Z,34.10
2023-05-22T12:24:10.133Z,34.08
2023-05-22T12:25:11.030Z,34.17
2023-05-22T12:26:10.151Z,33.99
2023-05-22T12:27:10.179Z,33.94
2023-05-22T12:28:10.092Z,33.99
2023-05-22T12:29:10.070Z,33.99
2023-05-22T12:30:11.226Z,33.80
2023-05-22T12:31:10.063Z,33.62
2023-05-22T12:32:10.145Z,33.64
2023-05-22T12:33:10.052Z,33.68
2023-05-22T12:34:10.078Z,33.62
2023-05-22T12:35:10.100Z,33.73
2023-05-22T12:36:10.986Z,33.84
2023-05-22T12:37:10.043Z,33.80
2023-05-22T12:38:09.928Z,33.92
2023-05-22T12:39:09.957Z,33.96
2023-05-22T12:40:10.012Z,33.96
2023-05-22T12:41:10.843Z,34.24
2023-05-22T12:42:10.011Z,34.48
2023-05-22T12:43:09.940Z,34.48
2023-05-22T12:44:09.883Z,34.42
2023-05-22T12:45:09.883Z,34.64
2023-05-22T12:46:09.960Z,34.78
2023-05-22T12:47:10.806Z,34.61
2023-05-22T12:48:09.904Z,34.64
2023-05-22T12:49:09.803Z,34.50
2023-05-22T12:50:09.818Z,34.35
2023-05-22T12:51:09.892Z,34.39
2023-05-22T12:52:10.798Z,34.32
2023-05-22T12:53:09.797Z,34.39